Time;durP1;ratioP1;P1;durP2;ratioP2;P2;SDS_P1;SDS_P2;PMS_P1;PMS_P2;Temp;Humidity;BMP_temperature;BMP_pressure;BME280_temperature;BME280_humidity;BME280_pressure;Samples;Min_cycle;Max_cycle;Signal;HPM_P1;HPM_P2
2023/03/03 00:00:06;;;;;;;41.08;24.80;;;;;;;6.82;100.00;100653.16;5004079;28;20080;-66
2023/03/03 00:02:32;;;;;;;37.67;23.70;;;;;;;6.72;100.00;100629.88;5008008;28;20087;-65
2023/03/03 00:04:57;;;;;;;40.80;25.45;;;;;;;6.85;100.00;100655.63;5006106;28;20500;-71
2023/03/03 00:07:23;;;;;;;36.20;22.20;;;;;;;6.82;100.00;100650.50;5006448;28;20042;-71
2023/03/03 00:09:49;;;;;;;38.30;22.77;;;;;;;6.81;100.00;100650.59;5006051;28;20777;-72
2023/03/03 00:12:26;;;;;;;37.45;23.30;;;;;;;6.87;100.00;100659.03;5006346;28;20105;-71
2023/03/03 00:14:53;;;;;;;33.33;22.42;;;;;;;6.86;100.00;100656.47;5004569;28;20080;-71
2023/03/03 00:17:24;;;;;;;37.22;22.15;;;;;;;6.88;100.00;100658.09;5006142;28;20669;-73
2023/03/03 00:19:50;;;;;;;35.60;21.40;;;;;;;6.81;100.00;100653.25;5005879;28;20417;-72
2023/03/03 00:22:27;;;;;;;38.45;21.52;;;;;;;6.88;100.00;100652.75;5006705;28;20040;-72
2023/03/03 00:24:53;;;;;;;35.40;22.95;;;;;;;6.90;100.00;100648.16;5006356;28;20443;-72
2023/03/03 00:27:26;;;;;;;30.75;20.17;;;;;;;6.92;100.00;100659.59;5008751;28;20036;-72
2023/03/03 00:29:59;;;;;;;37.03;19.88;;;;;;;6.93;100.00;100650.63;5006431;28;20054;-72
2023/03/03 00:32:26;;;;;;;32.95;20.25;;;;;;;6.95;100.00;100653.19;5004792;28;20026;-72
2023/03/03 00:34:55;;;;;;;30.98;20.33;;;;;;;6.94;100.00;100651.47;5006062;28;20072;-72
2023/03/03 00:37:30;;;;;;;30.52;18.40;;;;;;;6.91;100.00;100643.69;5005988;28;20053;-72
2023/03/03 00:40:15;;;;;;;31.23;20.88;;;;;;;6.89;100.00;100641.13;5005255;28;20036;-68
2023/03/03 00:42:43;;;;;;;30.67;20.77;;;;;;;6.86;100.00;100630.66;5008226;28;20036;-65
2023/03/03 00:45:28;;;;;;;35.15;22.13;;;;;;;6.93;100.00;100641.75;5004821;28;20041;-66
2023/03/03 00:47:54;;;;;;;32.60;19.92;;;;;;;6.92;100.00;100632.91;5009183;28;20576;-65
2023/03/03 00:50:33;;;;;;;33.33;20.52;;;;;;;6.94;100.00;100644.31;5009238;28;20040;-71
2023/03/03 00:53:03;;;;;;;31.13;19.73;;;;;;;6.93;100.00;100631.09;5009557;28;20022;-72
2023/03/03 00:55:30;;;;;;;32.30;20.05;;;;;;;6.92;100.00;100632.91;5008369;28;20092;-72
2023/03/03 00:57:55;;;;;;;33.85;20.67;;;;;;;6.92;100.00;100630.25;5009731;28;20112;-73
2023/03/03 01:00:21;;;;;;;37.67;21.40;;;;;;;6.91;100.00;100628.53;5009617;28;20024;-73
2023/03/03 01:02:47;;;;;;;35.40;21.25;;;;;;;6.92;100.00;100632.91;5008004;28;20634;-71
2023/03/03 01:05:14;;;;;;;33.38;20.38;;;;;;;6.91;100.00;100625.03;5009591;28;20411;-73
2023/03/03 01:07:39;;;;;;;33.15;21.33;;;;;;;6.93;100.00;100631.94;5010803;28;20387;-73
2023/03/03 01:10:05;;;;;;;34.83;20.70;;;;;;;6.92;100.00;100624.06;5009488;28;20034;-72
2023/03/03 01:12:31;;;;;;;35.90;21.60;;;;;;;6.93;100.00;100620.41;5008717;28;20057;-72
2023/03/03 01:14:57;;;;;;;34.20;21.58;;;;;;;6.91;100.00;100619.69;5008986;28;20472;-72
2023/03/03 01:17:22;;;;;;;34.92;21.25;;;;;;;6.88;100.00;100612.75;5009389;28;20036;-73
2023/03/03 01:19:48;;;;;;;36.40;22.27;;;;;;;6.88;100.00;100607.44;5009038;28;20101;-71
2023/03/03 01:22:13;;;;;;;33.20;21.40;;;;;;;6.92;100.00;100622.25;5009593;28;20054;-72
2023/03/03 01:24:39;;;;;;;35.47;21.48;;;;;;;6.92;100.00;100613.38;5008958;28;20083;-71
2023/03/03 01:27:04;;;;;;;33.15;20.30;;;;;;;6.93;100.00;100610.63;5008909;28;20741;-72
2023/03/03 01:29:29;;;;;;;33.55;21.40;;;;;;;6.93;100.00;100612.41;5008969;28;20554;-72
2023/03/03 01:31:55;;;;;;;34.50;21.08;;;;;;;6.94;100.00;100612.31;5008809;28;20022;-72
2023/03/03 01:34:20;;;;;;;35.65;21.30;;;;;;;6.96;100.00;100614.88;5009032;28;20034;-72
2023/03/03 01:36:46;;;;;;;34.00;21.08;;;;;;;6.93;100.00;100610.63;5008904;28;20113;-72
2023/03/03 01:39:11;;;;;;;30.85;20.02;;;;;;;6.88;100.00;100606.56;5007542;28;20092;-71
2023/03/03 01:41:37;;;;;;;34.85;21.88;;;;;;;6.91;100.00;100607.19;5007299;28;20559;-72
2023/03/03 01:44:03;;;;;;;33.45;21.05;;;;;;;6.93;100.00;100604.41;5007112;28;20029;-73
2023/03/03 01:47:03;;;;;;;30.73;20.75;;;;;;;6.93;100.00;100604.41;5009132;28;20033;-71
2023/03/03 01:49:35;;;;;;;36.47;21.95;;;;;;;6.91;100.00;100591.19;5001507;28;20053;-72
2023/03/03 01:52:09;;;;;;;34.08;22.70;;;;;;;6.93;100.00;100591.97;5008190;28;20030;-71
2023/03/03 01:54:40;;;;;;;34.58;22.50;;;;;;;6.88;100.00;100586.09;5009819;28;20432;-66
2023/03/03 01:57:12;;;;;;;35.50;23.77;;;;;;;6.93;100.00;100591.09;5006101;28;20029;-67
2023/03/03 01:59:45;;;;;;;38.58;22.40;;;;;;;6.89;100.00;100589.59;5008152;28;20057;-64
2023/03/03 02:02:11;;;;;;;38.72;23.52;;;;;;;6.88;100.00;100591.44;5007894;28;20036;-73
2023/03/03 02:04:36;;;;;;;40.22;23.88;;;;;;;6.91;100.00;100590.38;5009288;28;20030;-72
2023/03/03 02:07:08;;;;;;;34.70;23.25;;;;;;;6.89;100.00;100598.47;5008220;28;20460;-73
2023/03/03 02:09:49;;;;;;;36.92;22.98;;;;;;;6.89;100.00;100590.47;5008404;28;20034;-72
2023/03/03 02:12:17;;;;;;;40.83;23.27;;;;;;;6.91;100.00;100590.38;5007824;28;20029;-72
2023/03/03 02:14:43;;;;;;;35.60;22.75;;;;;;;6.90;100.00;100584.16;5008234;28;20073;-73
2023/03/03 02:17:09;;;;;;;38.72;23.02;;;;;;;6.81;100.00;100568.78;5008738;28;20060;-71
2023/03/03 02:19:50;;;;;;;34.13;22.70;;;;;;;6.89;100.00;100586.94;5007906;28;20042;-71
2023/03/03 02:22:20;;;;;;;40.17;23.20;;;;;;;6.86;100.00;100582.69;5008393;28;20026;-71
2023/03/03 02:24:55;;;;;;;39.95;24.25;;;;;;;6.89;100.00;100584.28;5008171;28;20046;-71
2023/03/03 02:27:21;;;;;;;36.92;22.30;;;;;;;6.87;100.00;100583.53;5007652;28;20113;-71
2023/03/03 02:29:46;;;;;;;35.90;23.50;;;;;;;6.86;100.00;100572.00;5007956;28;20117;-72
2023/03/03 02:32:12;;;;;;;38.15;22.38;;;;;;;6.88;100.00;100580.78;5007877;28;20018;-72
2023/03/03 02:34:51;;;;;;;37.13;23.92;;;;;;;6.88;100.00;100586.09;5007723;28;20034;-73
2023/03/03 02:37:18;;;;;;;37.30;23.65;;;;;;;6.88;100.00;100585.25;5007727;28;20044;-72
2023/03/03 02:39:44;;;;;;;33.10;21.70;;;;;;;6.84;100.00;100573.09;5008030;28;20038;-73
2023/03/03 02:42:16;;;;;;;34.22;22.65;;;;;;;6.83;100.00;100584.69;5009053;28;20373;-72
2023/03/03 02:44:41;;;;;;;38.88;24.52;;;;;;;6.77;100.00;100572.63;5007940;28;20440;-66
2023/03/03 02:47:07;;;;;;;36.20;23.77;;;;;;;6.71;100.00;100556.22;5006429;28;20064;-66
2023/03/03 02:49:34;;;;;;;37.80;24.58;;;;;;;6.61;100.00;100542.66;5006996;28;20075;-66
2023/03/03 02:52:02;;;;;;;40.40;25.00;;;;;;;6.65;100.00;100546.81;5012958;28;20420;-66
2023/03/03 02:54:32;;;;;;;37.35;23.58;;;;;;;6.80;100.00;100577.75;5007429;28;20109;-66
2023/03/03 02:56:59;;;;;;;38.55;24.25;;;;;;;6.81;100.00;100574.13;5006478;28;20814;-66
2023/03/03 02:59:24;;;;;;;40.78;25.10;;;;;;;6.81;100.00;100573.28;5006991;28;20467;-66
2023/03/03 03:01:50;;;;;;;38.42;24.52;;;;;;;6.67;100.00;100550.22;5004346;28;20045;-65
2023/03/03 03:04:21;;;;;;;40.20;24.38;;;;;;;6.66;100.00;100550.34;5007844;28;20029;-66
2023/03/03 03:06:47;;;;;;;39.08;25.77;;;;;;;6.80;100.00;100566.22;5010218;28;20091;-73
2023/03/03 03:09:14;;;;;;;39.17;24.77;;;;;;;6.79;100.00;100565.41;5009495;28;20022;-74
2023/03/03 03:11:41;;;;;;;42.03;25.08;;;;;;;6.80;100.00;100567.09;5011561;28;20388;-75
2023/03/03 03:14:08;;;;;;;40.80;25.95;;;;;;;6.78;100.00;100563.66;5009475;28;20025;-66
2023/03/03 03:16:34;;;;;;;38.47;23.48;;;;;;;6.80;100.00;100567.09;5010891;28;20038;-66
2023/03/03 03:19:01;;;;;;;41.00;24.73;;;;;;;6.65;100.00;100535.31;5011694;28;20037;-67
2023/03/03 03:21:27;;;;;;;37.25;23.77;;;;;;;6.73;100.00;100548.97;5008328;28;20084;-66
2023/03/03 03:23:53;;;;;;;40.35;25.42;;;;;;;6.67;100.00;100536.91;5006846;28;20032;-66
2023/03/03 03:26:19;;;;;;;36.97;23.75;;;;;;;6.73;100.00;100543.63;5007723;28;20034;-66
2023/03/03 03:28:48;;;;;;;39.30;24.40;;;;;;;6.70;100.00;100535.84;5006551;28;20049;-67
2023/03/03 03:31:14;;;;;;;38.20;24.38;;;;;;;6.67;100.00;100536.03;5006795;28;20098;-67
2023/03/03 03:33:40;;;;;;;38.22;23.67;;;;;;;6.77;100.00;100547.78;5007264;28;20025;-67
2023/03/03 03:36:06;;;;;;;39.72;24.27;;;;;;;6.74;100.00;100546.19;5007086;28;20491;-68
2023/03/03 03:38:33;;;;;;;40.80;24.70;;;;;;;6.64;100.00;100534.44;5007926;28;20087;-68
2023/03/03 03:40:59;;;;;;;40.10;24.58;;;;;;;6.67;100.00;100528.06;5005698;28;20037;-67
2023/03/03 03:43:25;;;;;;;42.03;25.20;;;;;;;6.76;100.00;100540.75;5007523;28;20031;-67
2023/03/03 03:45:51;;;;;;;44.42;24.67;;;;;;;6.66;100.00;100521.88;5007245;28;20039;-67
2023/03/03 03:48:18;;;;;;;42.28;26.58;;;;;;;6.74;100.00;100537.34;5007697;28;20112;-68
2023/03/03 03:50:45;;;;;;;40.17;25.17;;;;;;;6.75;100.00;100539.88;5009625;28;20121;-68
2023/03/03 03:53:11;;;;;;;42.20;26.98;;;;;;;6.62;100.00;100514.19;5007443;28;20026;-68
2023/03/03 03:55:36;;;;;;;47.92;27.27;;;;;;;6.55;100.00;100496.94;5007040;28;20113;-69
2023/03/03 03:58:02;;;;;;;40.28;26.00;;;;;;;6.72;100.00;100526.81;5007090;28;20085;-66
2023/03/03 04:00:27;;;;;;;48.42;26.75;;;;;;;6.57;100.00;100506.53;5008585;28;20037;-67
2023/03/03 04:02:53;;;;;;;43.58;27.45;;;;;;;6.54;100.00;100508.53;5007061;28;20033;-67
2023/03/03 04:05:18;;;;;;;44.28;26.75;;;;;;;6.55;100.00;100512.91;5007455;28;20109;-67
2023/03/03 04:07:44;;;;;;;44.88;27.45;;;;;;;6.58;100.00;100518.88;5007571;28;20037;-67
2023/03/03 04:10:10;;;;;;;44.08;26.73;;;;;;;6.58;100.00;100516.22;5006008;28;20032;-67
2023/03/03 04:12:38;;;;;;;41.88;25.65;;;;;;;6.64;100.00;100522.94;5006005;28;20092;-67
2023/03/03 04:15:06;;;;;;;44.45;26.85;;;;;;;6.47;100.00;100502.78;5009902;28;20112;-68
2023/03/03 04:17:32;;;;;;;43.58;27.67;;;;;;;6.56;100.00;100517.28;5011041;28;20030;-68
2023/03/03 04:19:57;;;;;;;47.72;28.75;;;;;;;6.53;100.00;100504.16;5009542;28;20034;-67
2023/03/03 04:22:23;;;;;;;45.88;26.98;;;;;;;6.64;100.00;100526.47;5011074;28;20065;-67
2023/03/03 04:24:48;;;;;;;44.70;27.85;;;;;;;6.59;100.00;100514.41;5012801;28;20109;-77
2023/03/03 04:27:14;;;;;;;49.83;28.17;;;;;;;6.60;100.00;100522.31;5013491;28;20025;-77
2023/03/03 04:29:40;;;;;;;43.15;26.50;;;;;;;6.68;100.00;100529.78;5012733;28;20107;-77
2023/03/03 04:32:06;;;;;;;46.03;27.15;;;;;;;6.62;100.00;100528.38;5012888;28;20659;-76
2023/03/03 04:34:31;;;;;;;49.63;29.08;;;;;;;6.60;100.00;100527.63;5011265;28;20128;-78
2023/03/03 04:36:57;;;;;;;45.67;27.63;;;;;;;6.61;100.00;100529.34;5012161;28;20036;-78
2023/03/03 04:39:22;;;;;;;48.20;28.42;;;;;;;6.51;100.00;100504.28;5011081;28;20117;-68
2023/03/03 04:41:47;;;;;;;53.75;30.48;;;;;;;6.49;100.00;100513.34;5009840;28;20141;-68
2023/03/03 04:44:13;;;;;;;45.97;28.35;;;;;;;6.46;100.00;100505.53;5010645;28;20041;-68
2023/03/03 04:46:38;;;;;;;50.35;29.58;;;;;;;6.61;100.00;100531.16;5009959;28;20035;-68
2023/03/03 04:49:06;;;;;;;54.35;31.20;;;;;;;6.46;100.00;100509.09;5009062;28;20083;-67
2023/03/03 04:51:32;;;;;;;58.97;31.85;;;;;;;6.51;100.00;100508.75;5009311;28;20349;-68
2023/03/03 04:53:57;;;;;;;50.70;30.10;;;;;;;6.50;100.00;100505.25;5010722;28;20116;-68
2023/03/03 04:56:23;;;;;;;53.30;30.83;;;;;;;6.65;100.00;100533.47;5012980;28;20033;-68
2023/03/03 04:58:48;;;;;;;50.92;28.30;;;;;;;6.58;100.00;100518.03;5010354;28;20029;-68
2023/03/03 05:01:14;;;;;;;44.63;27.33;;;;;;;6.68;100.00;100530.63;5009823;28;20045;-68
2023/03/03 05:03:40;;;;;;;47.97;28.88;;;;;;;6.67;100.00;100536.91;5010304;28;20537;-68
2023/03/03 05:06:06;;;;;;;46.65;29.20;;;;;;;6.62;100.00;100531.03;5008880;28;20025;-69
2023/03/03 05:08:32;;;;;;;48.42;27.98;;;;;;;6.68;100.00;100538.59;5010486;28;20028;-68
2023/03/03 05:10:58;;;;;;;47.20;28.88;;;;;;;6.60;100.00;100524.09;5010194;28;20038;-68
2023/03/03 05:13:26;;;;;;;46.70;28.98;;;;;;;6.58;100.00;100520.72;5010072;28;20079;-69
2023/03/03 05:15:56;;;;;;;46.95;26.52;;;;;;;6.68;100.00;100535.94;5009670;28;20030;-68
2023/03/03 05:18:22;;;;;;;48.17;28.98;;;;;;;6.50;100.00;100504.38;5010508;28;20034;-68
2023/03/03 05:20:49;;;;;;;51.97;30.17;;;;;;;6.63;100.00;100526.56;5009137;28;20053;-67
2023/03/03 05:23:15;;;;;;;45.08;28.92;;;;;;;6.57;100.00;100508.31;5007846;28;20444;-66
2023/03/03 05:25:41;;;;;;;42.78;27.85;;;;;;;6.63;100.00;100523.91;5009408;28;20071;-67
2023/03/03 05:28:10;;;;;;;45.92;27.25;;;;;;;6.58;100.00;100515.38;5012775;28;20057;-67
2023/03/03 05:30:36;;;;;;;46.53;27.98;;;;;;;6.66;100.00;100531.69;5009698;28;20033;-68
2023/03/03 05:33:03;;;;;;;50.35;29.05;;;;;;;6.56;100.00;100519.94;5009626;28;20041;-68
2023/03/03 05:35:29;;;;;;;46.08;29.08;;;;;;;6.48;100.00;100507.13;5009801;28;20030;-67
2023/03/03 05:37:56;;;;;;;48.53;30.50;;;;;;;6.50;100.00;100515.03;5008350;28;20123;-67
2023/03/03 05:40:23;;;;;;;50.70;30.40;;;;;;;6.54;100.00;100522.72;5008003;28;20092;-68
2023/03/03 05:42:48;;;;;;;46.10;28.45;;;;;;;6.54;100.00;100525.38;5007848;28;20030;-68
2023/03/03 05:45:14;;;;;;;51.03;29.75;;;;;;;6.62;100.00;100544.34;5007001;28;20024;-69
2023/03/03 05:47:39;;;;;;;50.33;30.92;;;;;;;6.62;100.00;100539.03;5007700;28;20061;-69
2023/03/03 05:50:05;;;;;;;54.30;32.75;;;;;;;6.62;100.00;100535.53;5009377;28;20052;-67
2023/03/03 05:52:30;;;;;;;54.90;33.40;;;;;;;6.44;100.00;100497.66;5007988;28;20045;-67
2023/03/03 05:54:56;;;;;;;56.58;31.83;;;;;;;6.72;100.00;100542.78;5008605;28;20037;-66
2023/03/03 05:57:21;;;;;;;50.00;30.05;;;;;;;6.65;100.00;100528.16;5008039;28;20033;-67
2023/03/03 05:59:49;;;;;;;46.70;29.60;;;;;;;6.80;100.00;100553.78;5009220;28;20064;-68
2023/03/03 06:02:15;;;;;;;50.55;30.70;;;;;;;6.75;100.00;100531.88;5007188;28;20025;-68
2023/03/03 06:04:40;;;;;;;48.15;30.27;;;;;;;6.88;100.00;100556.78;5008593;28;20036;-68
2023/03/03 06:07:06;;;;;;;44.03;27.55;;;;;;;6.76;100.00;100528.28;5010035;28;20753;-68
2023/03/03 06:09:32;;;;;;;44.45;27.83;;;;;;;6.80;100.00;100535.09;5008673;28;20048;-68
2023/03/03 06:11:58;;;;;;;44.63;28.10;;;;;;;6.93;100.00;100557.28;5007708;28;20033;-68
2023/03/03 06:14:24;;;;;;;44.47;28.30;;;;;;;6.78;100.00;100534.34;5008314;28;20041;-68
2023/03/03 06:16:49;;;;;;;45.42;28.35;;;;;;;6.93;100.00;100557.28;5005688;28;20033;-68
2023/03/03 06:19:15;;;;;;;49.03;29.00;;;;;;;6.75;100.00;100518.56;5005222;28;20029;-67
2023/03/03 06:21:40;;;;;;;43.53;27.25;;;;;;;6.71;100.00;100519.75;5008115;28;20045;-67
2023/03/03 06:24:07;;;;;;;48.05;29.20;;;;;;;6.88;100.00;100542.59;5008286;28;20115;-67
2023/03/03 06:26:32;;;;;;;47.63;28.75;;;;;;;6.95;100.00;100550.06;5009472;28;20038;-67
2023/03/03 06:28:58;;;;;;;43.40;28.65;;;;;;;6.83;100.00;100531.38;5006236;28;20140;-66
2023/03/03 06:31:25;;;;;;;43.97;28.05;;;;;;;6.88;100.00;100540.78;5007593;28;20759;-67
2023/03/03 06:33:50;;;;;;;44.45;26.98;;;;;;;6.89;100.00;100544.28;5007660;28;20466;-67
2023/03/03 06:36:16;;;;;;;44.88;27.40;;;;;;;6.99;100.00;100562.22;5005231;28;20037;-69
2023/03/03 06:38:42;;;;;;;45.28;27.48;;;;;;;6.78;100.00;100523.69;5007743;28;20048;-69
2023/03/03 06:41:08;;;;;;;43.17;26.30;;;;;;;6.91;100.00;100548.53;5008783;28;20041;-68
2023/03/03 06:43:35;;;;;;;45.95;27.90;;;;;;;6.96;100.00;100562.41;5007708;28;20435;-67
2023/03/03 06:46:00;;;;;;;45.92;28.75;;;;;;;6.95;100.00;100555.38;5007487;28;20033;-68
2023/03/03 06:48:26;;;;;;;45.47;29.35;;;;;;;7.06;100.00;100575.13;5004011;28;20657;-68
2023/03/03 06:50:51;;;;;;;45.10;29.52;;;;;;;6.70;100.00;100514.53;5009825;28;20037;-68
2023/03/03 06:53:18;;;;;;;53.60;31.75;;;;;;;7.00;100.00;100569.25;5006674;28;20050;-68
2023/03/03 06:55:44;;;;;;;50.80;31.80;;;;;;;7.07;100.00;100574.16;5007804;28;20091;-67
2023/03/03 06:58:13;;;;;;;50.20;31.27;;;;;;;6.90;100.00;100540.66;5006391;28;20101;-67
2023/03/03 07:00:44;;;;;;;52.17;31.35;;;;;;;6.99;100.00;100559.53;5003286;28;20584;-68
2023/03/03 07:03:24;;;;;;;50.50;30.30;;;;;;;6.96;100.00;100556.22;5004516;28;20025;-67
2023/03/03 07:05:51;;;;;;;49.83;31.10;;;;;;;6.97;100.00;100558.78;5006544;28;20471;-68
2023/03/03 07:08:21;;;;;;;55.30;33.08;;;;;;;7.02;100.00;100573.63;5006291;28;20438;-68
2023/03/03 07:10:48;;;;;;;51.78;31.95;;;;;;;6.95;100.00;100563.38;5007109;28;20040;-68
2023/03/03 07:13:18;;;;;;;48.75;30.73;;;;;;;6.99;100.00;100572.00;5003337;28;20040;-68
2023/03/03 07:15:45;;;;;;;46.75;29.48;;;;;;;7.04;100.00;100581.38;5004596;28;20041;-68
2023/03/03 07:18:33;;;;;;;42.38;25.52;;;;;;;7.06;100.00;100588.47;5003612;28;20045;-68
2023/03/03 07:21:00;;;;;;;46.97;26.65;;;;;;;6.79;100.00;100544.06;5005190;28;20179;-68
2023/03/03 07:23:41;;;;;;;39.58;25.77;;;;;;;7.12;100.00;100593.38;5004593;28;20037;-68
2023/03/03 07:26:16;;;;;;;40.72;25.90;;;;;;;6.96;100.00;100572.22;5005700;28;20464;-67
2023/03/03 07:28:48;;;;;;;41.92;26.48;;;;;;;7.03;100.00;100579.69;5006784;28;20684;-67
2023/03/03 07:31:26;;;;;;;44.20;27.52;;;;;;;7.03;100.00;100583.34;5004788;28;20125;-68
2023/03/03 07:33:52;;;;;;;42.53;26.00;;;;;;;7.14;100.00;100608.28;5007200;28;20025;-67
2023/03/03 07:36:36;;;;;;;47.33;28.85;;;;;;;7.10;100.00;100592.63;5007217;28;20460;-67
2023/03/03 07:39:35;;;;;;;47.42;29.00;;;;;;;7.14;100.00;100597.63;5005766;28;20034;-67
2023/03/03 07:42:20;;;;;;;44.15;26.83;;;;;;;7.05;100.00;100579.59;5003070;28;20042;-69
2023/03/03 07:44:47;;;;;;;45.17;27.25;;;;;;;7.10;100.00;100584.59;5007055;28;20033;-66
2023/03/03 07:47:23;;;;;;;43.03;26.38;;;;;;;7.20;100.00;100596.34;5006847;28;20678;-67
2023/03/03 07:49:50;;;;;;;43.17;26.90;;;;;;;7.16;100.00;100587.69;5005091;28;20507;-66
2023/03/03 07:52:38;;;;;;;45.92;28.25;;;;;;;7.03;100.00;100562.00;5006701;28;20041;-68
2023/03/03 07:55:25;;;;;;;50.55;28.80;;;;;;;7.21;100.00;100582.03;5003586;28;20038;-68
2023/03/03 07:57:53;;;;;;;43.20;27.92;;;;;;;7.03;100.00;100553.03;5008232;28;20030;-66
2023/03/03 08:00:27;;;;;;;46.67;27.45;;;;;;;7.30;100.00;100586.72;5007490;28;20415;-67
2023/03/03 08:02:58;;;;;;;43.35;24.75;;;;;;;7.31;100.00;100580.44;5006060;28;20030;-68
2023/03/03 08:05:28;;;;;;;41.83;26.92;;;;;;;7.37;100.00;100586.19;5005399;28;20042;-67
2023/03/03 08:08:20;;;;;;;39.65;25.05;;;;;;;7.32;100.00;100571.50;5004133;28;20033;-68
2023/03/03 08:10:51;;;;;;;42.10;25.38;;;;;;;7.42;99.70;100577.88;5004772;28;20050;-67
2023/03/03 08:13:27;;;;;;;47.13;25.48;;;;;;;7.44;98.96;100578.59;5003399;28;20034;-67
2023/03/03 08:16:08;;;;;;;42.15;25.23;;;;;;;7.45;98.69;100583.84;4997619;28;20037;-67
2023/03/03 08:18:38;;;;;;;43.08;24.42;;;;;;;7.49;99.25;100579.16;5004585;28;20030;-68
2023/03/03 08:21:12;;;;;;;41.13;25.80;;;;;;;7.38;98.40;100558.56;5004789;28;20096;-68
2023/03/03 08:23:37;;;;;;;36.67;22.95;;;;;;;7.48;97.87;100588.13;5006420;28;20463;-66
2023/03/03 08:26:03;;;;;;;40.25;25.17;;;;;;;7.39;98.30;100570.09;5006270;28;20034;-68
2023/03/03 08:28:29;;;;;;;45.28;26.52;;;;;;;7.41;98.58;100568.19;5005136;28;20060;-68
2023/03/03 08:30:55;;;;;;;47.63;26.90;;;;;;;7.55;97.96;100595.59;5005466;28;20040;-67
2023/03/03 08:33:20;;;;;;;56.13;32.95;;;;;;;7.37;98.35;100562.19;5005156;28;20033;-67
2023/03/03 08:35:47;;;;;;;45.22;27.50;;;;;;;7.53;98.58;100575.28;5005959;28;20049;-66
2023/03/03 08:38:16;;;;;;;45.53;26.35;;;;;;;7.49;98.58;100569.34;5004732;28;20030;-67
2023/03/03 08:40:42;;;;;;;42.38;25.20;;;;;;;7.49;98.40;100566.66;5005965;28;20618;-66
2023/03/03 08:43:08;;;;;;;38.78;24.52;;;;;;;7.50;97.85;100563.03;5005028;28;20041;-68
2023/03/03 08:45:34;;;;;;;41.83;24.38;;;;;;;7.65;98.27;100582.44;5005763;28;20052;-67
2023/03/03 08:48:00;;;;;;;41.03;23.58;;;;;;;7.62;97.76;100572.84;5005126;28;20026;-67
2023/03/03 08:50:27;;;;;;;39.55;23.73;;;;;;;7.47;97.07;100544.56;5004145;28;20022;-66
2023/03/03 08:52:53;;;;;;;39.45;23.88;;;;;;;7.82;96.10;100598.09;5003520;28;20029;-68
2023/03/03 08:55:18;;;;;;;40.80;25.25;;;;;;;7.86;96.14;100594.22;5005317;28;20101;-68
2023/03/03 08:57:44;;;;;;;36.80;22.65;;;;;;;7.68;96.84;100559.06;5006171;28;20064;-67
2023/03/03 09:00:13;;;;;;;43.30;25.48;;;;;;;7.88;96.74;100589.63;5005665;28;20034;-67
2023/03/03 09:02:38;;;;;;;41.75;25.35;;;;;;;7.83;95.86;100565.09;5008974;28;20125;-67
2023/03/03 09:05:05;;;;;;;38.58;24.30;;;;;;;7.94;95.69;100587.38;5011067;28;20042;-75
2023/03/03 09:07:31;;;;;;;37.35;25.08;;;;;;;8.02;95.50;100592.16;5011450;28;20101;-75
2023/03/03 09:09:56;;;;;;;39.95;23.48;;;;;;;8.08;95.46;100595.22;5010007;28;20045;-75
2023/03/03 09:12:30;;;;;;;40.33;25.08;;;;;;;8.06;95.03;100578.44;5010746;28;20026;-75
2023/03/03 09:14:59;;;;;;;40.67;25.15;;;;;;;8.13;94.34;100590.38;5010668;28;20022;-75
2023/03/03 09:17:31;;;;;;;44.03;25.60;;;;;;;8.19;93.99;100589.13;5010889;28;20025;-74
2023/03/03 09:20:28;;;;;;;37.90;24.00;;;;;;;8.24;94.08;100586.97;5010751;28;20034;-74
2023/03/03 09:22:54;;;;;;;39.20;23.65;;;;;;;8.24;94.25;100577.16;5012082;28;20072;-74
2023/03/03 09:25:35;;;;;;;37.00;23.17;;;;;;;8.37;93.83;100587.75;5013368;28;20025;-72
2023/03/03 09:28:01;;;;;;;35.22;21.98;;;;;;;8.44;92.54;100576.50;5011639;28;20046;-74
2023/03/03 09:30:38;;;;;;;31.17;20.20;;;;;;;8.49;91.42;100570.81;5009363;28;20474;-74
2023/03/03 09:33:23;;;;;;;31.23;19.65;;;;;;;8.59;91.47;100574.50;5009201;28;20105;-74
2023/03/03 09:36:27;;;;;;;36.00;22.33;;;;;;;8.71;91.25;100586.94;5006313;28;20403;-75
2023/03/03 09:38:55;;;;;;;34.78;21.75;;;;;;;8.76;90.64;100577.59;5008502;28;20542;-75
2023/03/03 09:41:47;;;;;;;41.38;24.50;;;;;;;8.98;89.39;100585.69;5011003;28;20026;-76
2023/03/03 09:44:48;;;;;;;45.45;25.98;;;;;;;9.07;88.33;100584.13;5010245;28;20354;-74
2023/03/03 09:47:32;;;;;;;39.25;25.77;;;;;;;9.16;87.85;100578.06;5009095;28;20030;-75
2023/03/03 09:50:19;;;;;;;40.58;25.65;;;;;;;9.26;87.73;100579.88;5009237;28;20471;-75
2023/03/03 09:53:06;;;;;;;38.72;24.35;;;;;;;9.34;86.81;100587.31;5010475;28;20465;-75
2023/03/03 09:55:59;;;;;;;41.70;26.70;;;;;;;9.48;86.25;100583.56;5010663;28;20131;-74
2023/03/03 09:58:49;;;;;;;41.50;25.05;;;;;;;9.66;84.07;100576.72;5005757;28;20030;-74
2023/03/03 10:01:32;;;;;;;40.63;24.23;;;;;;;9.83;82.78;100573.56;5008437;28;20057;-75
2023/03/03 10:04:19;;;;;;;34.83;21.77;;;;;;;10.03;80.94;100570.13;5008985;28;20025;-76
2023/03/03 10:07:05;;;;;;;34.70;21.40;;;;;;;10.11;80.18;100554.28;5006904;28;20791;-67
2023/03/03 10:10:01;;;;;;;34.60;20.83;;;;;;;10.41;77.55;100560.66;5006066;28;20057;-66
2023/03/03 10:12:34;;;;;;;30.08;18.52;;;;;;;10.55;75.08;100538.88;5009628;28;20044;-67
2023/03/03 10:15:08;;;;;;;27.67;18.15;;;;;;;11.02;71.69;100567.03;5007464;28;20026;-68
2023/03/03 10:17:48;;;;;;;;;;;;;;;11.18;69.85;100568.28;5006105;28;20030;-67
2023/03/03 10:20:26;;;;;;;26.45;16.52;;;;;;;11.35;69.75;100564.13;5007591;28;19917;-68
2023/03/03 10:23:04;;;;;;;26.60;17.30;;;;;;;11.42;68.95;100570.69;5004000;28;20124;-75
2023/03/03 10:25:56;;;;;;;26.92;17.75;;;;;;;11.52;68.97;100564.34;5006998;28;20021;-75
2023/03/03 10:28:57;;;;;;;27.08;17.55;;;;;;;11.65;67.58;100566.00;5009353;28;20085;-74
2023/03/03 10:31:42;;;;;;;34.97;19.40;;;;;;;11.77;67.72;100564.91;5008298;28;20144;-76
2023/03/03 10:34:37;;;;;;;28.02;17.77;;;;;;;11.77;67.23;100559.56;4999258;28;20038;-75
2023/03/03 10:37:27;;;;;;;28.75;17.45;;;;;;;11.85;67.55;100555.19;5008578;28;20041;-73
2023/03/03 10:40:39;;;;;;;30.80;18.25;;;;;;;11.82;66.69;100558.16;5009643;28;20041;-74
2023/03/03 10:43:48;;;;;;;27.58;17.95;;;;;;;11.83;66.23;100553.63;4976403;28;20454;-74
2023/03/03 10:46:32;;;;;;;26.73;16.20;;;;;;;11.84;65.54;100555.31;5009336;28;20396;-73
2023/03/03 10:49:00;;;;;;;28.67;16.23;;;;;;;11.95;64.69;100548.00;5007535;28;20039;-75
2023/03/03 10:51:26;;;;;;;24.02;16.38;;;;;;;11.91;64.51;100545.72;5008016;28;20038;-67
2023/03/03 10:54:15;;;;;;;25.25;16.33;;;;;;;11.95;65.04;100545.31;5005639;28;20026;-67
2023/03/03 10:57:10;;;;;;;25.58;16.48;;;;;;;11.95;65.44;100539.94;5009085;28;20029;-74
2023/03/03 10:59:38;;;;;;;;;;;;;;;12.00;64.92;100542.22;5009385;28;20030;-73
2023/03/03 11:02:26;;;;;;;23.95;15.48;;;;;;;12.19;64.21;100534.19;5008760;28;20372;-75
2023/03/03 11:05:03;;;;;;;22.83;15.32;;;;;;;12.18;63.93;100533.31;5011302;28;20026;-74
2023/03/03 11:07:47;;;;;;;28.42;15.65;;;;;;;12.22;63.10;100532.03;5007510;28;20447;-73
2023/03/03 11:10:15;;;;;;;;;;;;;;;12.17;64.12;100538.84;5007053;28;20029;-73
2023/03/03 11:12:50;;;;;;;25.40;15.77;;;;;;;12.15;63.08;100533.59;5008231;28;19913;-74
2023/03/03 11:15:29;;;;;;;25.65;15.95;;;;;;;12.11;63.61;100525.94;5006906;28;20033;-73
2023/03/03 11:18:04;;;;;;;21.88;15.15;;;;;;;12.06;64.56;100530.91;5008191;28;20029;-73
2023/03/03 11:20:56;;;;;;;23.05;15.20;;;;;;;12.05;65.00;100526.50;5007965;28;20520;-72
2023/03/03 11:23:56;;;;;;;24.48;15.38;;;;;;;12.10;64.17;100530.50;5008681;28;20026;-75
2023/03/03 11:26:27;;;;;;;24.50;15.55;;;;;;;12.10;64.96;100524.25;5009121;28;20045;-73
2023/03/03 11:29:31;;;;;;;19.92;14.55;;;;;;;12.13;63.31;100523.97;5009176;28;20041;-74